Terminal Aerodrome Forecast
Issued by NWS

Home | Current Version | Previous Version | Text Only | Print | Product List | Glossary On
Versions: 1 2 3 4 5 6 7 8 9 10 11 12 13 14 15 16 17 18
000
FTUS41 KGYX 261120
TAFLEB
TAF
KLEB 261120Z 2612/2712 22009KT P6SM SCT100 BKN200
     FM261400 23010G18KT P6SM BKN200
     FM270000 23005KT P6SM SCT200
     FM270800 VRB03KT 2SM BR BKN010=

USA.gov is the U.S. government's official web portal to all federal, state and local government web resources and services.